Time;durP1;ratioP1;P1;durP2;ratioP2;P2;SDS_P1;SDS_P2;PMS_P1;PMS_P2;Temp;Humidity;BMP_temperature;BMP_pressure;BME280_temperature;BME280_humidity;BME280_pressure;Samples;Min_cycle;Max_cycle;Signal;HPM_P1;HPM_P2
2023/05/14 00:02:16;;;;;;;11.00;5.83;;;;;;;11.52;85.73;101554.56;5035544;28;20473;-73
2023/05/14 00:04:42;;;;;;;11.20;4.87;;;;;;;11.53;85.88;101556.97;5035427;28;20482;-73
2023/05/14 00:07:09;;;;;;;9.67;4.83;;;;;;;11.50;86.11;101552.13;5035286;28;20474;-73
2023/05/14 00:09:35;;;;;;;8.97;4.47;;;;;;;11.53;86.00;101550.75;5035402;28;20435;-73
2023/05/14 00:12:02;;;;;;;11.00;6.03;;;;;;;11.46;86.77;101540.22;5035035;28;20449;-73
2023/05/14 00:14:29;;;;;;;11.87;6.07;;;;;;;11.40;87.26;101540.53;5035321;28;20483;-73
2023/05/14 00:16:55;;;;;;;10.87;5.57;;;;;;;11.38;87.45;101543.56;5035264;28;20463;-73
2023/05/14 00:19:23;;;;;;;12.47;5.07;;;;;;;11.34;87.55;101543.28;5034872;28;20478;-72
2023/05/14 00:21:50;;;;;;;9.30;4.90;;;;;;;11.43;87.03;101538.06;5035029;28;20470;-71
2023/05/14 00:24:16;;;;;;;9.77;4.50;;;;;;;11.35;88.11;101542.19;5034740;28;20450;-71
2023/05/14 00:26:43;;;;;;;11.27;4.83;;;;;;;11.37;87.94;101534.56;5034322;28;20879;-71
2023/05/14 00:29:10;;;;;;;14.73;5.50;;;;;;;11.42;87.67;101538.34;5034873;28;20497;-71
2023/05/14 00:31:36;;;;;;;14.07;6.13;;;;;;;11.40;87.50;101530.50;5034629;28;20534;-72
2023/05/14 00:34:03;;;;;;;9.13;4.60;;;;;;;11.39;87.54;101533.50;5034520;28;20446;-71
2023/05/14 00:36:31;;;;;;;8.70;4.60;;;;;;;11.27;87.87;101523.81;5034786;28;20506;-72
2023/05/14 00:38:57;;;;;;;9.83;4.77;;;;;;;11.18;88.11;101525.50;5034467;28;20471;-72
2023/05/14 00:41:24;;;;;;;10.63;5.53;;;;;;;11.12;88.58;101518.50;5034330;28;20949;-72
2023/05/14 00:43:50;;;;;;;11.13;5.77;;;;;;;11.02;89.22;101518.56;5034585;28;20439;-72
2023/05/14 00:46:17;;;;;;;10.23;5.03;;;;;;;11.07;88.45;101518.53;5034620;28;20517;-72
2023/05/14 00:48:44;;;;;;;8.87;4.93;;;;;;;11.04;89.02;101516.38;5034577;28;20526;-73
2023/05/14 00:51:11;;;;;;;9.47;5.33;;;;;;;10.98;89.45;101518.31;5034585;28;20449;-72
2023/05/14 00:53:39;;;;;;;10.20;5.30;;;;;;;10.96;89.63;101511.56;5034513;28;20439;-72
2023/05/14 00:56:07;;;;;;;10.43;5.27;;;;;;;10.94;89.07;101513.75;5034328;28;20449;-72
2023/05/14 00:58:33;;;;;;;11.00;4.83;;;;;;;10.99;88.98;101511.81;5034396;28;20454;-72
2023/05/14 01:01:00;;;;;;;11.37;5.60;;;;;;;10.86;89.71;101515.94;5034417;28;20462;-72
2023/05/14 01:03:29;;;;;;;11.47;5.17;;;;;;;10.95;89.15;101512.66;5034328;28;20488;-73
2023/05/14 01:06:04;;;;;;;11.50;5.80;;;;;;;10.90;89.81;101508.06;5034256;28;20525;-73
2023/05/14 01:08:40;;;;;;;12.57;6.20;;;;;;;10.83;88.14;101505.66;5033962;28;21051;-73
2023/05/14 01:11:18;;;;;;;14.17;5.07;;;;;;;10.86;85.73;101505.09;5034255;28;20477;-73
2023/05/14 01:13:58;;;;;;;9.73;4.93;;;;;;;10.77;85.80;101512.19;5034078;28;20448;-72
2023/05/14 01:16:27;;;;;;;8.70;4.80;;;;;;;10.71;85.35;101516.00;5033732;28;20505;-72
2023/05/14 01:18:55;;;;;;;9.37;4.90;;;;;;;10.67;85.65;101512.25;5033848;28;20450;-72
2023/05/14 01:21:35;;;;;;;9.77;4.97;;;;;;;10.64;85.83;101510.09;5034042;28;20438;-73
2023/05/14 01:24:02;;;;;;;9.70;4.50;;;;;;;10.56;88.00;101511.47;5033597;28;20552;-72
2023/05/14 01:26:30;;;;;;;11.23;5.13;;;;;;;10.58;89.01;101513.91;5033936;28;20463;-72
2023/05/14 01:29:01;;;;;;;9.97;5.17;;;;;;;10.54;89.65;101516.38;5033705;28;20491;-72
2023/05/14 01:31:31;;;;;;;13.40;6.50;;;;;;;10.53;89.83;101512.03;5033705;28;20435;-73
2023/05/14 01:33:59;;;;;;;11.67;5.30;;;;;;;10.61;89.29;101507.94;5033739;28;20453;-73
2023/05/14 01:36:28;;;;;;;15.40;5.73;;;;;;;10.57;89.29;101512.28;5033699;28;20490;-73
2023/05/14 01:38:56;;;;;;;11.40;5.07;;;;;;;10.60;89.23;101500.91;5032751;28;20466;-73
2023/05/14 01:41:25;;;;;;;10.10;5.07;;;;;;;10.56;89.38;101499.84;5033643;28;20538;-72
2023/05/14 01:43:52;;;;;;;11.37;5.60;;;;;;;10.51;89.40;101492.56;5033528;28;20471;-73
2023/05/14 01:46:18;;;;;;;11.30;5.97;;;;;;;10.53;88.97;101494.97;5033547;28;20473;-72
2023/05/14 01:48:45;;;;;;;11.73;5.03;;;;;;;10.34;89.75;101498.31;5033486;28;20519;-72
2023/05/14 01:51:13;;;;;;;9.87;5.50;;;;;;;10.27;90.38;101496.97;5033537;28;20514;-72
2023/05/14 01:53:41;;;;;;;10.30;5.37;;;;;;;10.26;90.52;101490.75;5033502;28;20502;-71
2023/05/14 01:56:08;;;;;;;9.77;4.80;;;;;;;10.28;90.34;101487.78;5033385;28;20514;-71
2023/05/14 01:58:34;;;;;;;11.07;5.27;;;;;;;10.29;89.65;101490.19;5033451;28;20489;-71
2023/05/14 02:01:01;;;;;;;11.07;5.60;;;;;;;10.17;90.58;101489.66;5033416;28;20513;-71
2023/05/14 02:03:28;;;;;;;11.60;5.00;;;;;;;10.11;90.35;101488.06;5032977;28;20973;-71
2023/05/14 02:05:54;;;;;;;15.70;6.17;;;;;;;10.04;90.57;101487.53;5032940;28;20451;-71
2023/05/14 02:08:21;;;;;;;10.23;5.13;;;;;;;9.93;91.17;101484.06;5032928;28;20491;-70
2023/05/14 02:10:49;;;;;;;13.70;6.10;;;;;;;9.90;91.45;101484.59;5033065;28;20446;-72
2023/05/14 02:13:16;;;;;;;17.13;6.73;;;;;;;9.99;91.18;101482.16;5032990;28;20462;-71
2023/05/14 02:15:43;;;;;;;11.70;6.00;;;;;;;10.03;90.60;101488.63;5033273;28;20798;-72
2023/05/14 02:18:09;;;;;;;9.77;5.20;;;;;;;9.97;90.77;101481.63;5032884;28;20972;-72
2023/05/14 02:20:36;;;;;;;14.10;6.37;;;;;;;10.06;90.74;101482.69;5032878;28;20447;-72
2023/05/14 02:23:02;;;;;;;9.93;5.90;;;;;;;10.06;90.63;101485.38;5032758;28;20463;-72
2023/05/14 02:25:29;;;;;;;16.07;5.97;;;;;;;10.12;90.10;101481.56;5033126;28;20439;-73
2023/05/14 02:27:57;;;;;;;12.27;5.30;;;;;;;10.11;90.16;101480.75;5032973;28;20487;-72
2023/05/14 02:30:23;;;;;;;13.23;6.63;;;;;;;10.16;90.10;101485.34;5032769;28;20486;-72
2023/05/14 02:32:50;;;;;;;10.80;4.83;;;;;;;10.18;89.97;101476.94;5032735;28;20529;-72
2023/05/14 02:35:17;;;;;;;12.73;6.10;;;;;;;10.25;87.18;101481.00;5033139;28;20811;-72
2023/05/14 02:37:43;;;;;;;15.20;5.60;;;;;;;10.25;85.98;101486.44;5032652;28;20980;-72
2023/05/14 02:40:11;;;;;;;14.70;5.83;;;;;;;10.31;85.72;101481.78;5033037;28;20442;-72
2023/05/14 02:42:37;;;;;;;11.33;6.30;;;;;;;10.31;85.77;101484.50;5032721;28;20551;-72
2023/05/14 02:45:07;;;;;;;11.43;5.70;;;;;;;10.26;87.11;101479.91;5032957;28;20471;-71
2023/05/14 02:47:33;;;;;;;9.70;5.20;;;;;;;10.26;87.23;101479.91;5032903;28;20499;-71
2023/05/14 02:50:00;;;;;;;12.17;5.07;;;;;;;10.36;87.56;101479.09;5033316;28;20490;-71
2023/05/14 02:52:26;;;;;;;12.80;5.77;;;;;;;10.37;88.86;101479.91;5036809;28;20550;-71
2023/05/14 02:54:53;;;;;;;13.43;5.73;;;;;;;10.37;89.66;101477.19;5036750;28;20451;-71
2023/05/14 02:57:19;;;;;;;13.73;5.53;;;;;;;10.37;90.47;101478.00;5036394;28;20491;-71
2023/05/14 02:59:46;;;;;;;10.27;5.50;;;;;;;10.44;90.59;101480.38;5036633;28;20810;-71
2023/05/14 03:02:14;;;;;;;10.23;5.57;;;;;;;10.38;91.09;101478.81;5036621;28;20482;-72
2023/05/14 03:04:41;;;;;;;13.03;6.20;;;;;;;10.46;90.77;101479.03;5036564;28;20453;-71
2023/05/14 03:07:07;;;;;;;11.80;5.50;;;;;;;10.60;90.00;101484.66;5036198;28;20473;-71
2023/05/14 03:09:34;;;;;;;9.30;5.73;;;;;;;10.67;89.66;101482.47;5036350;28;20483;-71
2023/05/14 03:12:00;;;;;;;10.77;6.03;;;;;;;10.76;89.61;101486.19;5036472;28;20443;-71
2023/05/14 03:14:27;;;;;;;13.20;6.10;;;;;;;10.90;89.25;101482.88;5036444;28;20439;-71
2023/05/14 03:16:53;;;;;;;8.67;4.37;;;;;;;10.98;88.88;101482.25;5035998;28;20996;-71
2023/05/14 03:19:21;;;;;;;8.47;4.60;;;;;;;11.03;88.75;101480.34;5036314;28;20466;-71
2023/05/14 03:21:48;;;;;;;11.20;5.53;;;;;;;11.05;88.56;101474.63;5035916;28;20447;-72
2023/05/14 03:24:15;;;;;;;15.80;7.00;;;;;;;11.08;88.95;101476.78;5036024;28;20447;-72
2023/05/14 03:26:42;;;;;;;9.93;5.20;;;;;;;11.11;89.59;101476.19;5036123;28;20494;-71
2023/05/14 03:29:09;;;;;;;11.73;5.23;;;;;;;11.09;90.07;101481.09;5035688;28;20491;-72
2023/05/14 03:31:36;;;;;;;9.90;5.50;;;;;;;11.20;89.83;101470.97;5036073;28;20447;-72
2023/05/14 03:34:02;;;;;;;10.37;5.80;;;;;;;11.21;90.21;101484.28;5036038;28;20469;-72
2023/05/14 03:36:30;;;;;;;14.27;6.03;;;;;;;11.32;90.00;101479.56;5035581;28;20467;-72
2023/05/14 03:38:57;;;;;;;10.63;5.20;;;;;;;11.33;90.48;101471.16;5035606;28;20443;-71
2023/05/14 03:41:24;;;;;;;12.80;6.20;;;;;;;11.36;90.67;101475.19;5035889;28;20542;-71
2023/05/14 03:43:50;;;;;;;11.97;6.07;;;;;;;11.44;90.45;101465.63;5035538;28;20482;-72
2023/05/14 03:46:17;;;;;;;9.87;5.73;;;;;;;11.48;90.29;101466.69;5035746;28;20499;-72
2023/05/14 03:48:43;;;;;;;13.30;6.13;;;;;;;11.45;91.08;101469.97;5035660;28;20542;-71
2023/05/14 03:51:10;;;;;;;13.13;5.53;;;;;;;11.61;90.87;101468.75;5035695;28;20539;-72
2023/05/14 03:53:38;;;;;;;10.70;5.30;;;;;;;11.67;90.98;101464.06;5035257;28;20979;-71
2023/05/14 03:56:05;;;;;;;9.87;5.10;;;;;;;11.71;91.02;101465.13;5035223;28;20452;-72
2023/05/14 03:58:31;;;;;;;10.40;5.30;;;;;;;11.81;90.46;101459.56;5035390;28;20881;-71
2023/05/14 04:00:59;;;;;;;11.10;5.87;;;;;;;11.88;88.85;101459.28;5035402;28;20449;-71
2023/05/14 04:03:25;;;;;;;12.70;5.60;;;;;;;11.81;88.62;101459.56;5034500;28;20872;-72
2023/05/14 04:05:52;;;;;;;15.00;5.83;;;;;;;11.89;87.88;101463.59;5035277;28;20449;-72
2023/05/14 04:08:18;;;;;;;9.90;5.47;;;;;;;11.97;86.82;101461.06;5035259;28;20538;-72
2023/05/14 04:10:46;;;;;;;12.00;5.30;;;;;;;12.00;85.86;101460.50;5035344;28;20439;-71
2023/05/14 04:13:13;;;;;;;8.93;5.00;;;;;;;12.03;85.50;101462.63;5034900;28;20966;-71
2023/05/14 04:15:39;;;;;;;11.80;5.30;;;;;;;12.10;85.79;101451.41;5034943;28;20447;-71
2023/05/14 04:18:06;;;;;;;11.20;5.40;;;;;;;12.14;87.96;101457.88;5034826;28;20999;-71
2023/05/14 04:20:33;;;;;;;19.40;6.23;;;;;;;12.18;89.18;101452.69;5035095;28;20463;-71
2023/05/14 04:22:59;;;;;;;11.40;5.20;;;;;;;12.33;89.72;101456.00;5034822;28;20842;-71
2023/05/14 04:25:26;;;;;;;9.40;5.17;;;;;;;12.45;90.45;101452.06;5035021;28;20453;-72
2023/05/14 04:27:54;;;;;;;10.90;5.70;;;;;;;12.53;90.24;101452.22;5034956;28;20471;-72
2023/05/14 04:30:21;;;;;;;12.43;5.30;;;;;;;12.56;90.02;101454.34;5034659;28;21007;-72
2023/05/14 04:32:47;;;;;;;9.73;5.10;;;;;;;12.60;89.66;101444.50;5034705;28;20948;-72
2023/05/14 04:35:14;;;;;;;11.93;5.23;;;;;;;12.63;89.42;101456.72;5034637;28;20475;-72
2023/05/14 04:37:40;;;;;;;14.90;5.43;;;;;;;12.58;89.76;101454.88;5034837;28;20459;-71
2023/05/14 04:40:10;;;;;;;12.70;5.37;;;;;;;12.64;89.98;101450.16;5034762;28;20477;-72
2023/05/14 04:42:36;;;;;;;25.73;5.97;;;;;;;12.68;89.97;101453.13;5034812;28;20470;-72
2023/05/14 04:45:05;;;;;;;15.73;5.20;;;;;;;12.77;89.66;101452.16;5034358;28;20882;-71
2023/05/14 04:47:32;;;;;;;9.73;4.83;;;;;;;12.83;89.49;101450.97;5034602;28;20893;-73
2023/05/14 04:49:58;;;;;;;11.97;5.37;;;;;;;12.90;89.19;101441.66;5034539;28;20485;-72
2023/05/14 04:52:25;;;;;;;10.60;5.00;;;;;;;12.94;88.90;101448.13;5034542;28;20486;-73
2023/05/14 04:54:51;;;;;;;11.67;4.70;;;;;;;13.00;88.59;101444.19;5034536;28;20446;-72
2023/05/14 04:57:18;;;;;;;12.90;5.80;;;;;;;13.06;88.22;101451.19;5034088;28;20551;-72
2023/05/14 04:59:45;;;;;;;8.73;4.70;;;;;;;13.13;87.87;101451.59;5034489;28;20493;-72
2023/05/14 05:02:13;;;;;;;11.17;5.03;;;;;;;13.20;87.05;101446.59;5034366;28;20507;-72
2023/05/14 05:04:39;;;;;;;13.17;5.87;;;;;;;13.25;85.99;101446.53;5034032;28;20935;-72
2023/05/14 05:07:06;;;;;;;9.60;4.80;;;;;;;13.33;84.26;101445.88;5034188;28;20473;-72
2023/05/14 05:09:32;;;;;;;9.63;4.17;;;;;;;13.38;83.44;101443.06;5033942;28;20582;-72
2023/05/14 05:12:00;;;;;;;10.60;4.97;;;;;;;13.47;82.65;101445.09;5034185;28;20450;-72
2023/05/14 05:14:26;;;;;;;11.60;5.03;;;;;;;13.55;81.98;101444.41;5033905;28;20469;-71
2023/05/14 05:16:53;;;;;;;8.77;4.37;;;;;;;13.64;81.45;101448.06;5033995;28;20469;-72
2023/05/14 05:19:21;;;;;;;8.53;3.93;;;;;;;13.73;80.99;101440.00;5033868;28;20473;-72
2023/05/14 05:21:48;;;;;;;10.20;4.53;;;;;;;13.83;80.93;101437.88;5033612;28;20526;-72
2023/05/14 05:24:14;;;;;;;10.40;4.80;;;;;;;13.92;80.49;101445.34;5033606;28;20995;-72
2023/05/14 05:26:41;;;;;;;9.70;4.33;;;;;;;14.00;79.66;101436.47;5033600;28;20463;-72
2023/05/14 05:29:07;;;;;;;10.77;4.77;;;;;;;14.08;78.67;101438.50;5033840;28;20921;-72
2023/05/14 05:31:35;;;;;;;9.17;4.13;;;;;;;14.17;77.71;101430.41;5035132;28;20439;-72
2023/05/14 05:34:03;;;;;;;10.10;3.80;;;;;;;14.23;76.61;101443.63;5033669;28;20479;-72
2023/05/14 05:36:30;;;;;;;11.03;4.33;;;;;;;14.31;75.40;101432.00;5033656;28;20467;-71
2023/05/14 05:38:57;;;;;;;9.40;4.47;;;;;;;14.35;74.62;101443.13;5033513;28;20486;-71
2023/05/14 05:41:24;;;;;;;9.27;3.97;;;;;;;14.39;73.33;101444.94;5033620;28;20526;-70
2023/05/14 05:43:50;;;;;;;10.73;4.50;;;;;;;14.46;72.76;101443.69;5033520;28;20439;-73
2023/05/14 05:46:17;;;;;;;7.90;3.63;;;;;;;14.56;72.75;101448.94;5033151;28;20778;-71
2023/05/14 05:48:43;;;;;;;9.43;4.00;;;;;;;14.66;72.90;101443.28;5033159;28;20479;-71
2023/05/14 05:51:10;;;;;;;11.03;4.50;;;;;;;14.82;71.84;101441.78;5033183;28;20443;-71
2023/05/14 05:53:38;;;;;;;7.47;3.67;;;;;;;15.01;69.36;101443.56;5033047;28;20443;-71
2023/05/14 05:56:06;;;;;;;9.60;4.20;;;;;;;15.17;69.03;101441.25;5033298;28;20854;-71
2023/05/14 05:58:33;;;;;;;9.07;4.33;;;;;;;15.26;69.25;101434.72;5033446;28;20455;-71
2023/05/14 06:01:00;;;;;;;9.43;4.10;;;;;;;15.37;68.51;101435.28;5033483;28;20481;-71
2023/05/14 06:03:26;;;;;;;10.90;4.47;;;;;;;15.47;68.75;101436.94;5033453;28;20530;-71
2023/05/14 06:05:53;;;;;;;10.07;3.90;;;;;;;15.55;68.88;101436.19;5033334;28;20439;-71
2023/05/14 06:08:20;;;;;;;7.60;3.53;;;;;;;15.63;68.42;101438.97;5033361;28;20451;-71
2023/05/14 06:10:47;;;;;;;9.80;4.47;;;;;;;15.73;67.87;101434.38;5033187;28;20522;-69
2023/05/14 06:13:14;;;;;;;7.83;3.47;;;;;;;15.82;65.28;101440.69;5033187;28;20502;-71
2023/05/14 06:15:41;;;;;;;7.40;3.40;;;;;;;15.95;63.32;101436.25;5033279;28;20474;-71
2023/05/14 06:18:07;;;;;;;12.90;4.43;;;;;;;16.05;63.82;101442.22;5033180;28;20506;-71
2023/05/14 06:20:34;;;;;;;8.77;3.50;;;;;;;16.13;62.26;101440.63;5033158;28;20542;-71
2023/05/14 06:23:01;;;;;;;7.50;3.20;;;;;;;16.24;62.43;101441.94;5032923;28;20534;-72
2023/05/14 06:25:28;;;;;;;6.07;2.50;;;;;;;16.32;62.46;101432.16;5034067;28;20475;-72
2023/05/14 06:27:56;;;;;;;7.37;3.10;;;;;;;16.39;62.03;101436.03;5037024;28;20463;-74
2023/05/14 06:30:22;;;;;;;6.83;2.80;;;;;;;16.55;60.71;101439.09;5037188;28;20489;-72
2023/05/14 06:32:49;;;;;;;10.67;3.97;;;;;;;16.72;60.17;101430.13;5036877;28;20525;-73
2023/05/14 06:35:15;;;;;;;10.90;3.67;;;;;;;16.86;59.53;101429.97;5036788;28;20515;-72
2023/05/14 06:37:42;;;;;;;7.97;3.27;;;;;;;17.00;57.23;101433.34;5036992;28;20484;-69
2023/05/14 06:40:10;;;;;;;6.83;2.50;;;;;;;17.14;54.98;101441.38;5036888;28;20443;-73
2023/05/14 06:42:36;;;;;;;12.13;2.60;;;;;;;17.25;53.69;101441.84;5037252;28;20522;-73
2023/05/14 06:45:05;;;;;;;7.70;3.03;;;;;;;17.33;53.11;101432.81;5036557;28;20533;-73
2023/05/14 06:47:32;;;;;;;7.10;3.07;;;;;;;17.38;53.29;101436.16;5036753;28;20463;-73
2023/05/14 06:50:00;;;;;;;7.47;2.50;;;;;;;17.49;53.21;101441.31;5036843;28;20566;-73
2023/05/14 06:52:27;;;;;;;6.50;2.20;;;;;;;17.62;51.49;101438.38;5036813;28;20439;-73
2023/05/14 06:54:53;;;;;;;7.03;2.77;;;;;;;17.80;50.69;101446.56;5036761;28;20435;-73
2023/05/14 06:57:20;;;;;;;8.20;2.70;;;;;;;17.90;49.99;101447.00;5036384;28;21002;-73
2023/05/14 06:59:47;;;;;;;11.23;2.70;;;;;;;18.03;49.81;101447.91;5036675;28;20439;-73
2023/05/14 07:02:15;;;;;;;6.13;2.10;;;;;;;18.21;49.77;101451.34;5036393;28;20530;-73
2023/05/14 07:04:42;;;;;;;6.67;2.80;;;;;;;18.32;48.36;101447.06;5036625;28;20525;-73
2023/05/14 07:07:09;;;;;;;8.53;2.60;;;;;;;18.45;47.87;101447.16;5036499;28;20463;-72
2023/05/14 07:09:35;;;;;;;6.90;2.60;;;;;;;18.49;48.21;101442.63;5036404;28;20487;-72
2023/05/14 07:12:02;;;;;;;7.73;2.30;;;;;;;18.58;47.95;101443.34;5036444;28;20443;-73
2023/05/14 07:14:29;;;;;;;7.40;2.70;;;;;;;18.68;47.03;101442.94;5036126;28;21054;-72
2023/05/14 07:16:56;;;;;;;7.13;2.50;;;;;;;18.79;47.58;101441.44;5036341;28;20524;-73
2023/05/14 07:19:24;;;;;;;7.83;2.87;;;;;;;18.87;46.98;101442.53;5036037;28;20959;-72
2023/05/14 07:21:50;;;;;;;10.83;2.87;;;;;;;18.75;46.74;101435.03;5035938;28;20908;-74
2023/05/14 07:24:17;;;;;;;7.00;2.70;;;;;;;18.76;47.23;101439.38;5036089;28;20427;-73
2023/05/14 07:26:43;;;;;;;6.80;2.60;;;;;;;18.81;47.62;101439.16;5036143;28;20546;-74
2023/05/14 07:29:10;;;;;;;12.50;2.60;;;;;;;18.88;47.37;101433.94;5036203;28;20443;-73
2023/05/14 07:31:37;;;;;;;6.93;2.57;;;;;;;18.89;46.92;101432.78;5035930;28;20562;-74
2023/05/14 07:34:03;;;;;;;6.97;2.27;;;;;;;18.83;45.58;101427.88;5035734;28;20475;-73
2023/05/14 07:36:31;;;;;;;7.83;2.10;;;;;;;18.97;46.09;101427.56;5035605;28;21028;-74
2023/05/14 07:38:58;;;;;;;5.27;1.60;;;;;;;19.12;46.88;101424.19;5035944;28;20443;-73
2023/05/14 07:41:24;;;;;;;8.30;2.80;;;;;;;19.26;45.80;101432.94;5035828;28;20469;-73
2023/05/14 07:43:51;;;;;;;7.70;2.30;;;;;;;19.42;45.78;101428.38;5035789;28;20535;-74
2023/05/14 07:46:17;;;;;;;6.33;2.50;;;;;;;19.51;46.32;101428.28;5035503;28;20981;-74
2023/05/14 07:48:44;;;;;;;6.17;2.27;;;;;;;19.52;45.80;101420.84;5035784;28;20453;-73
2023/05/14 07:51:11;;;;;;;9.30;2.53;;;;;;;19.50;46.03;101421.19;5035709;28;20483;-73
2023/05/14 07:53:39;;;;;;;6.70;2.47;;;;;;;19.56;45.31;101419.03;5035712;28;20799;-73
2023/05/14 07:56:06;;;;;;;6.97;2.10;;;;;;;19.56;45.89;101416.28;5035567;28;20486;-77
2023/05/14 07:58:34;;;;;;;9.53;2.30;;;;;;;19.71;45.85;101418.41;5035304;28;20443;-72
2023/05/14 08:01:02;;;;;;;5.50;1.87;;;;;;;19.84;46.62;101417.25;5035558;28;20444;-72
2023/05/14 08:03:29;;;;;;;6.20;1.90;;;;;;;19.93;46.00;101421.84;5035213;28;20447;-72
2023/05/14 08:05:55;;;;;;;7.57;2.27;;;;;;;20.07;45.57;101414.03;5035351;28;20444;-71
2023/05/14 08:08:22;;;;;;;6.50;2.40;;;;;;;20.21;45.20;101419.97;5035711;28;20826;-71
2023/05/14 08:10:50;;;;;;;6.90;2.93;;;;;;;20.35;44.29;101414.91;5035283;28;20483;-70
2023/05/14 08:13:17;;;;;;;6.30;1.77;;;;;;;20.51;43.87;101422.50;5034959;28;20945;-71
2023/05/14 08:15:43;;;;;;;8.67;2.33;;;;;;;20.66;43.38;101410.75;5035327;28;20530;-70
2023/05/14 08:18:10;;;;;;;6.70;2.40;;;;;;;20.73;43.75;101412.91;5035228;28;20464;-71
2023/05/14 08:20:37;;;;;;;6.40;2.20;;;;;;;20.76;42.97;101401.19;5035171;28;20439;-71
2023/05/14 08:23:03;;;;;;;6.97;2.00;;;;;;;20.84;43.40;101408.50;5034738;28;20466;-71
2023/05/14 08:25:30;;;;;;;6.33;1.93;;;;;;;20.88;43.16;101403.88;5035128;28;20448;-70
2023/05/14 08:27:58;;;;;;;4.80;1.60;;;;;;;21.04;43.17;101398.44;5035001;28;20546;-70
2023/05/14 08:30:25;;;;;;;6.40;2.07;;;;;;;21.20;42.68;101399.25;5034966;28;20574;-71
2023/05/14 08:32:51;;;;;;;6.23;1.90;;;;;;;21.37;43.37;101387.91;5034662;28;20475;-72
2023/05/14 08:35:18;;;;;;;6.40;1.93;;;;;;;21.48;43.32;101387.41;5034628;28;20956;-71
2023/05/14 08:37:45;;;;;;;5.60;1.70;;;;;;;21.51;41.73;101386.66;5034333;28;20972;-71
2023/05/14 08:40:12;;;;;;;6.50;1.80;;;;;;;21.55;41.93;101384.81;5034813;28;20531;-71
2023/05/14 08:42:40;;;;;;;6.20;1.87;;;;;;;21.48;41.44;101382.69;5034789;28;20445;-71
2023/05/14 08:45:13;;;;;;;5.80;1.90;;;;;;;21.47;40.23;101380.25;5034421;28;20451;-71
2023/05/14 08:47:40;;;;;;;6.40;2.13;;;;;;;21.46;41.07;101378.66;5033902;28;20467;-70
2023/05/14 08:50:09;;;;;;;6.43;2.40;;;;;;;21.47;41.56;101377.50;5034501;28;20570;-70
2023/05/14 08:52:35;;;;;;;5.37;1.97;;;;;;;21.49;41.21;101377.97;5034616;28;20475;-70
2023/05/14 08:55:05;;;;;;;15.27;2.27;;;;;;;21.54;41.19;101378.50;5034267;28;20443;-70
2023/05/14 08:57:33;;;;;;;5.67;2.00;;;;;;;21.65;41.42;101379.56;5034131;28;21027;-70
2023/05/14 09:00:00;;;;;;;6.60;2.20;;;;;;;21.72;40.59;101378.13;5034461;28;20820;-70
2023/05/14 09:02:30;;;;;;;7.17;2.70;;;;;;;21.79;41.57;101381.88;5034395;28;20863;-73
2023/05/14 09:04:58;;;;;;;6.47;2.00;;;;;;;21.81;41.42;101375.97;5034045;28;20482;-73
2023/05/14 09:07:26;;;;;;;7.07;2.40;;;;;;;21.91;40.17;101373.50;5034260;28;20493;-72
2023/05/14 09:09:53;;;;;;;11.13;2.60;;;;;;;21.87;40.10;101364.31;5034132;28;20443;-72
2023/05/14 09:12:20;;;;;;;5.93;2.07;;;;;;;21.93;40.10;101370.34;5033813;28;20453;-73
2023/05/14 09:14:49;;;;;;;5.40;1.83;;;;;;;21.94;39.93;101363.69;5034176;28;20501;-72
2023/05/14 09:17:16;;;;;;;6.70;2.00;;;;;;;22.07;38.59;101359.63;5034073;28;20542;-71
2023/05/14 09:19:46;;;;;;;5.80;2.10;;;;;;;22.21;39.65;101363.91;5034156;28;20435;-72
2023/05/14 09:22:15;;;;;;;5.70;1.93;;;;;;;22.15;38.90;101357.88;5033484;28;20952;-73
2023/05/14 09:24:42;;;;;;;7.00;2.17;;;;;;;22.31;38.92;101353.09;5034006;28;20789;-72
2023/05/14 09:27:10;;;;;;;5.60;2.00;;;;;;;22.49;39.21;101358.19;5033898;28;20890;-73
2023/05/14 09:29:36;;;;;;;5.77;1.67;;;;;;;22.65;38.98;101347.84;5033614;28;20821;-70
2023/05/14 09:32:06;;;;;;;7.90;2.40;;;;;;;22.72;38.60;101350.78;5033514;28;21008;-72
2023/05/14 09:34:36;;;;;;;5.80;2.10;;;;;;;22.81;38.32;101342.25;5033906;28;20450;-72
2023/05/14 09:37:06;;;;;;;6.60;2.43;;;;;;;22.83;37.40;101334.38;5033663;28;20829;-72
2023/05/14 09:39:35;;;;;;;6.57;2.17;;;;;;;22.85;38.50;101329.31;5033712;28;20431;-72
2023/05/14 09:42:02;;;;;;;6.30;1.77;;;;;;;22.65;37.00;101328.53;5033622;28;20444;-72
2023/05/14 09:44:28;;;;;;;6.67;2.40;;;;;;;22.57;38.14;101324.03;5033351;28;21019;-72
2023/05/14 09:46:56;;;;;;;6.97;2.03;;;;;;;22.59;37.77;101327.22;5033555;28;20469;-72
2023/05/14 09:49:23;;;;;;;6.20;2.10;;;;;;;22.51;37.58;101312.47;5033277;28;20443;-72
2023/05/14 09:51:50;;;;;;;6.27;2.07;;;;;;;22.25;36.61;101321.41;5033446;28;20505;-73
2023/05/14 09:54:18;;;;;;;5.60;1.87;;;;;;;22.25;38.37;101304.84;5033502;28;20542;-72
2023/05/14 09:56:44;;;;;;;6.87;1.67;;;;;;;22.23;37.89;101312.72;5033424;28;20562;-72
2023/05/14 09:59:11;;;;;;;5.87;1.87;;;;;;;22.17;36.01;101301.13;5032857;28;20949;-72
2023/05/14 10:01:38;;;;;;;5.60;1.80;;;;;;;22.22;37.24;101289.00;5032829;28;20462;-72
2023/05/14 10:04:07;;;;;;;6.67;2.07;;;;;;;22.28;38.19;101287.56;5033363;28;20435;-72
2023/05/14 10:06:37;;;;;;;6.10;2.00;;;;;;;22.29;37.74;101289.16;5033293;28;20467;-72
2023/05/14 10:09:07;;;;;;;6.30;1.97;;;;;;;22.17;37.90;101281.81;5033144;28;20467;-73
2023/05/14 10:11:38;;;;;;;6.13;1.77;;;;;;;22.18;38.20;101285.41;5033297;28;20898;-71
2023/05/14 10:14:08;;;;;;;5.33;1.90;;;;;;;22.24;39.80;101275.66;5033482;28;20979;-70
2023/05/14 10:16:41;;;;;;;5.67;1.97;;;;;;;22.36;39.30;101275.53;5033038;28;20463;-73
2023/05/14 10:19:09;;;;;;;6.47;1.80;;;;;;;22.53;39.76;101267.94;5033130;28;20424;-72
2023/05/14 10:21:38;;;;;;;5.67;1.70;;;;;;;22.56;38.44;101267.19;5033544;28;20523;-72
2023/05/14 10:24:06;;;;;;;6.17;2.17;;;;;;;22.45;38.23;101275.28;5032953;28;20509;-71
2023/05/14 10:26:33;;;;;;;6.53;2.23;;;;;;;22.28;38.20;101271.00;5032848;28;20972;-72
2023/05/14 10:29:01;;;;;;;8.27;2.73;;;;;;;22.11;38.66;101265.91;5033178;28;20439;-72
2023/05/14 10:31:46;;;;;;;5.03;1.47;;;;;;;21.95;38.58;101265.16;5032847;28;20486;-72
2023/05/14 10:34:32;;;;;;;5.60;2.00;;;;;;;21.82;39.12;101258.97;5033351;28;20430;-72
2023/05/14 10:36:59;;;;;;;5.37;2.10;;;;;;;21.64;38.37;101261.34;5033156;28;20470;-71
2023/05/14 10:39:43;;;;;;;5.97;2.00;;;;;;;21.52;39.24;101267.00;5033140;28;20451;-71
2023/05/14 10:42:11;;;;;;;5.60;2.10;;;;;;;21.50;39.53;101261.00;5033107;28;20518;-71
2023/05/14 10:44:46;;;;;;;6.07;2.27;;;;;;;21.41;39.63;101255.69;5033130;28;20443;-71
2023/05/14 10:47:14;;;;;;;5.53;2.33;;;;;;;21.30;39.63;101249.13;5032877;28;20964;-71
2023/05/14 10:49:42;;;;;;;5.50;1.73;;;;;;;21.16;39.67;101249.56;5032982;28;20451;-71
2023/05/14 10:52:08;;;;;;;6.57;2.13;;;;;;;21.04;41.50;101255.19;5032805;28;20490;-71
2023/05/14 10:54:35;;;;;;;6.20;2.00;;;;;;;21.03;41.09;101248.03;5032864;28;20435;-72
2023/05/14 10:57:02;;;;;;;6.00;2.03;;;;;;;20.99;39.98;101238.91;5032802;28;20495;-72
2023/05/14 10:59:29;;;;;;;5.60;2.20;;;;;;;21.04;40.61;101236.69;5032831;28;20442;-72
2023/05/14 11:01:58;;;;;;;7.53;2.13;;;;;;;21.15;41.39;101234.97;5032795;28;20477;-72
2023/05/14 11:04:24;;;;;;;7.80;2.47;;;;;;;21.29;40.71;101231.75;5032746;28;20455;-71
2023/05/14 11:06:53;;;;;;;5.10;1.90;;;;;;;21.40;40.86;101230.09;5032705;28;20459;-71
2023/05/14 11:09:21;;;;;;;6.33;2.00;;;;;;;21.44;40.42;101226.63;5032878;28;20439;-72
2023/05/14 11:11:48;;;;;;;6.90;2.93;;;;;;;21.29;40.46;101231.75;5034281;28;20585;-72
2023/05/14 11:14:14;;;;;;;8.43;2.40;;;;;;;21.15;40.15;101221.19;5036511;28;20443;-72
2023/05/14 11:16:41;;;;;;;6.33;2.40;;;;;;;21.04;40.74;101224.88;5036309;28;20459;-72
2023/05/14 11:19:10;;;;;;;6.30;2.17;;;;;;;21.00;40.70;101230.28;5035983;28;20451;-72
2023/05/14 11:21:37;;;;;;;6.87;2.33;;;;;;;20.99;40.03;101227.91;5036296;28;20446;-72
2023/05/14 11:24:04;;;;;;;13.03;2.47;;;;;;;21.01;40.72;101220.88;5035824;28;20458;-72